sensor_id;sensor_type;location;lat;lon;timestamp;pressure;altitude;pressure_sealevel;temperature;humidity
18900;BME280;9582;52.018;6.306;2023-11-21T00:00:40;101586.16;;;7.26;100.00
18900;BME280;9582;52.018;6.306;2023-11-21T00:03:07;101587.06;;;7.25;100.00
18900;BME280;9582;52.018;6.306;2023-11-21T00:05:34;101589.72;;;7.22;100.00
18900;BME280;9582;52.018;6.306;2023-11-21T00:08:01;101586.38;;;7.17;100.00
18900;BME280;9582;52.018;6.306;2023-11-21T00:10:28;101585.50;;;7.15;100.00
18900;BME280;9582;52.018;6.306;2023-11-21T00:12:54;101589.03;;;7.14;100.00
18900;BME280;9582;52.018;6.306;2023-11-21T00:15:21;101590.81;;;7.10;100.00
18900;BME280;9582;52.018;6.306;2023-11-21T00:17:48;101584.81;;;7.07;100.00
18900;BME280;9582;52.018;6.306;2023-11-21T00:20:14;101598.69;;;7.06;100.00
18900;BME280;9582;52.018;6.306;2023-11-21T00:22:42;101591.75;;;7.06;100.00
18900;BME280;9582;52.018;6.306;2023-11-21T00:25:09;101589.13;;;7.06;100.00
18900;BME280;9582;52.018;6.306;2023-11-21T00:27:36;101590.81;;;7.09;100.00
18900;BME280;9582;52.018;6.306;2023-11-21T00:30:03;101588.22;;;7.09;100.00
18900;BME280;9582;52.018;6.306;2023-11-21T00:32:32;101591.69;;;7.09;100.00
18900;BME280;9582;52.018;6.306;2023-11-21T00:34:59;101596.88;;;7.09;100.00
18900;BME280;9582;52.018;6.306;2023-11-21T00:37:27;101596.03;;;7.09;100.00
18900;BME280;9582;52.018;6.306;2023-11-21T00:39:55;101601.19;;;7.12;100.00
18900;BME280;9582;52.018;6.306;2023-11-21T00:42:21;101596.88;;;7.11;100.00
18900;BME280;9582;52.018;6.306;2023-11-21T00:44:48;101593.34;;;7.13;100.00
18900;BME280;9582;52.018;6.306;2023-11-21T00:47:15;101603.72;;;7.16;100.00
18900;BME280;9582;52.018;6.306;2023-11-21T00:49:42;101602.81;;;7.17;100.00
18900;BME280;9582;52.018;6.306;2023-11-21T00:52:09;101591.47;;;7.21;100.00
18900;BME280;9582;52.018;6.306;2023-11-21T00:54:35;101598.34;;;7.24;100.00
18900;BME280;9582;52.018;6.306;2023-11-21T00:57:04;101601.81;;;7.24;100.00
18900;BME280;9582;52.018;6.306;2023-11-21T00:59:30;101603.50;;;7.27;100.00
18900;BME280;9582;52.018;6.306;2023-11-21T01:01:57;101608.66;;;7.30;100.00
18900;BME280;9582;52.018;6.306;2023-11-21T01:04:25;101623.28;;;7.35;100.00
18900;BME280;9582;52.018;6.306;2023-11-21T01:06:53;101621.50;;;7.39;100.00
18900;BME280;9582;52.018;6.306;2023-11-21T01:09:20;101623.25;;;7.37;100.00
18900;BME280;9582;52.018;6.306;2023-11-21T01:11:46;101634.50;;;7.37;100.00
18900;BME280;9582;52.018;6.306;2023-11-21T01:14:14;101640.59;;;7.38;100.00
18900;BME280;9582;52.018;6.306;2023-11-21T01:16:43;101638.03;;;7.36;100.00
18900;BME280;9582;52.018;6.306;2023-11-21T01:19:09;101651.03;;;7.36;100.00
18900;BME280;9582;52.018;6.306;2023-11-21T01:21:35;101649.31;;;7.34;100.00
18900;BME280;9582;52.018;6.306;2023-11-21T01:24:03;101655.31;;;7.37;100.00
18900;BME280;9582;52.018;6.306;2023-11-21T01:26:30;101659.66;;;7.37;100.00
18900;BME280;9582;52.018;6.306;2023-11-21T01:28:57;101665.75;;;7.37;100.00
18900;BME280;9582;52.018;6.306;2023-11-21T01:31:25;101669.19;;;7.39;100.00
18900;BME280;9582;52.018;6.306;2023-11-21T01:33:54;101670.88;;;7.40;100.00
18900;BME280;9582;52.018;6.306;2023-11-21T01:36:21;101668.22;;;7.43;100.00
18900;BME280;9582;52.018;6.306;2023-11-21T01:38:48;101679.44;;;7.47;100.00
18900;BME280;9582;52.018;6.306;2023-11-21T01:41:15;101682.88;;;7.49;100.00
18900;BME280;9582;52.018;6.306;2023-11-21T01:43:42;101679.34;;;7.51;100.00
18900;BME280;9582;52.018;6.306;2023-11-21T01:46:09;101688.84;;;7.54;100.00
18900;BME280;9582;52.018;6.306;2023-11-21T01:48:37;101682.72;;;7.58;100.00
18900;BME280;9582;52.018;6.306;2023-11-21T01:51:05;101683.56;;;7.59;100.00
18900;BME280;9582;52.018;6.306;2023-11-21T01:53:31;101688.72;;;7.60;100.00
18900;BME280;9582;52.018;6.306;2023-11-21T01:55:58;101689.53;;;7.64;100.00
18900;BME280;9582;52.018;6.306;2023-11-21T01:58:25;101684.34;;;7.64;100.00
18900;BME280;9582;52.018;6.306;2023-11-21T02:00:52;101687.81;;;7.64;100.00
18900;BME280;9582;52.018;6.306;2023-11-21T02:03:20;101690.38;;;7.66;100.00
18900;BME280;9582;52.018;6.306;2023-11-21T02:05:49;101685.16;;;7.67;100.00
18900;BME280;9582;52.018;6.306;2023-11-21T02:08:15;101686.00;;;7.68;100.00
18900;BME280;9582;52.018;6.306;2023-11-21T02:10:43;101683.41;;;7.66;100.00
18900;BME280;9582;52.018;6.306;2023-11-21T02:13:09;101683.47;;;7.63;100.00
18900;BME280;9582;52.018;6.306;2023-11-21T02:15:36;101685.25;;;7.61;100.00
18900;BME280;9582;52.018;6.306;2023-11-21T02:18:04;101691.34;;;7.60;100.00
18900;BME280;9582;52.018;6.306;2023-11-21T02:20:31;101689.66;;;7.59;100.00
18900;BME280;9582;52.018;6.306;2023-11-21T02:23:01;101687.06;;;7.57;100.00
18900;BME280;9582;52.018;6.306;2023-11-21T02:25:29;101688.84;;;7.55;100.00
18900;BME280;9582;52.018;6.306;2023-11-21T02:27:56;101689.75;;;7.53;100.00
18900;BME280;9582;52.018;6.306;2023-11-21T02:30:23;101683.75;;;7.49;100.00
18900;BME280;9582;52.018;6.306;2023-11-21T02:32:51;101695.00;;;7.50;100.00
18900;BME280;9582;52.018;6.306;2023-11-21T02:35:18;101693.28;;;7.50;100.00
18900;BME280;9582;52.018;6.306;2023-11-21T02:37:46;101694.09;;;7.51;100.00
18900;BME280;9582;52.018;6.306;2023-11-21T02:40:14;101691.50;;;7.52;100.00
18900;BME280;9582;52.018;6.306;2023-11-21T02:42:43;101694.06;;;7.54;100.00
18900;BME280;9582;52.018;6.306;2023-11-21T02:45:10;101699.25;;;7.54;100.00
18900;BME280;9582;52.018;6.306;2023-11-21T02:47:38;101691.44;;;7.54;100.00
18900;BME280;9582;52.018;6.306;2023-11-21T02:50:05;101693.19;;;7.55;100.00
18900;BME280;9582;52.018;6.306;2023-11-21T02:52:33;101701.84;;;7.55;100.00
18900;BME280;9582;52.018;6.306;2023-11-21T02:55:00;101702.72;;;7.56;100.00
18900;BME280;9582;52.018;6.306;2023-11-21T02:57:28;101709.59;;;7.57;100.00
18900;BME280;9582;52.018;6.306;2023-11-21T02:59:54;101713.94;;;7.58;100.00
18900;BME280;9582;52.018;6.306;2023-11-21T03:02:21;101715.66;;;7.59;100.00
18900;BME280;9582;52.018;6.306;2023-11-21T03:04:48;101710.41;;;7.61;100.00
18900;BME280;9582;52.018;6.306;2023-11-21T03:07:15;101714.72;;;7.63;100.00
18900;BME280;9582;52.018;6.306;2023-11-21T03:09:41;101719.91;;;7.63;100.00
18900;BME280;9582;52.018;6.306;2023-11-21T03:12:09;101725.97;;;7.64;100.00
18900;BME280;9582;52.018;6.306;2023-11-21T03:14:38;101726.84;;;7.64;100.00
18900;BME280;9582;52.018;6.306;2023-11-21T03:17:05;101729.41;;;7.66;100.00
18900;BME280;9582;52.018;6.306;2023-11-21T03:19:31;101735.47;;;7.68;100.00
18900;BME280;9582;52.018;6.306;2023-11-21T03:21:58;101744.09;;;7.70;100.00
18900;BME280;9582;52.018;6.306;2023-11-21T03:24:25;101736.25;;;7.71;100.00
18900;BME280;9582;52.018;6.306;2023-11-21T03:26:51;101739.69;;;7.73;100.00
18900;BME280;9582;52.018;6.306;2023-11-21T03:29:18;101744.88;;;7.75;100.00
18900;BME280;9582;52.018;6.306;2023-11-21T03:31:46;101745.69;;;7.77;100.00
18900;BME280;9582;52.018;6.306;2023-11-21T03:34:16;101748.28;;;7.78;100.00
18900;BME280;9582;52.018;6.306;2023-11-21T03:36:43;101756.03;;;7.81;100.00
18900;BME280;9582;52.018;6.306;2023-11-21T03:39:11;101750.84;;;7.80;100.00
18900;BME280;9582;52.018;6.306;2023-11-21T03:41:38;101746.53;;;7.79;100.00
18900;BME280;9582;52.018;6.306;2023-11-21T03:44:04;101752.59;;;7.79;100.00
18900;BME280;9582;52.018;6.306;2023-11-21T03:46:31;101752.59;;;7.79;100.00
18900;BME280;9582;52.018;6.306;2023-11-21T03:48:59;101751.72;;;7.80;100.00
18900;BME280;9582;52.018;6.306;2023-11-21T03:51:25;101742.16;;;7.79;100.00
18900;BME280;9582;52.018;6.306;2023-11-21T03:53:52;101743.94;;;7.79;100.00
18900;BME280;9582;52.018;6.306;2023-11-21T03:56:19;101750.88;;;7.78;100.00
18900;BME280;9582;52.018;6.306;2023-11-21T03:58:47;101747.38;;;7.79;100.00
18900;BME280;9582;52.018;6.306;2023-11-21T04:01:19;101753.44;;;7.80;100.00
18900;BME280;9582;52.018;6.306;2023-11-21T04:03:47;101758.69;;;7.78;100.00
18900;BME280;9582;52.018;6.306;2023-11-21T04:06:15;101751.75;;;7.79;100.00
18900;BME280;9582;52.018;6.306;2023-11-21T04:08:42;101754.31;;;7.80;100.00
18900;BME280;9582;52.018;6.306;2023-11-21T04:11:09;101758.63;;;7.81;100.00
18900;BME280;9582;52.018;6.306;2023-11-21T04:13:37;101757.72;;;7.82;100.00
18900;BME280;9582;52.018;6.306;2023-11-21T04:16:04;101760.31;;;7.84;100.00
18900;BME280;9582;52.018;6.306;2023-11-21T04:18:31;101762.88;;;7.85;100.00
18900;BME280;9582;52.018;6.306;2023-11-21T04:20:57;101768.09;;;7.85;100.00
18900;BME280;9582;52.018;6.306;2023-11-21T04:23:26;101775.03;;;7.86;100.00
18900;BME280;9582;52.018;6.306;2023-11-21T04:25:52;101777.66;;;7.85;100.00
18900;BME280;9582;52.018;6.306;2023-11-21T04:28:21;101777.66;;;7.85;100.00
18900;BME280;9582;52.018;6.306;2023-11-21T04:30:47;101794.13;;;7.85;100.00
18900;BME280;9582;52.018;6.306;2023-11-21T04:33:14;101790.66;;;7.86;100.00
18900;BME280;9582;52.018;6.306;2023-11-21T04:35:40;101801.94;;;7.87;100.00
18900;BME280;9582;52.018;6.306;2023-11-21T04:38:07;101803.69;;;7.86;100.00
18900;BME280;9582;52.018;6.306;2023-11-21T04:40:35;101806.22;;;7.88;100.00
18900;BME280;9582;52.018;6.306;2023-11-21T04:43:01;101804.50;;;7.88;100.00
18900;BME280;9582;52.018;6.306;2023-11-21T04:45:29;101806.22;;;7.89;100.00
18900;BME280;9582;52.018;6.306;2023-11-21T04:47:55;101809.72;;;7.88;100.00
18900;BME280;9582;52.018;6.306;2023-11-21T04:50:22;101809.72;;;7.88;100.00
18900;BME280;9582;52.018;6.306;2023-11-21T04:52:48;101818.38;;;7.89;100.00
18900;BME280;9582;52.018;6.306;2023-11-21T04:55:15;101821.84;;;7.89;100.00
18900;BME280;9582;52.018;6.306;2023-11-21T04:57:43;101818.34;;;7.90;100.00
18900;BME280;9582;52.018;6.306;2023-11-21T05:00:11;101827.91;;;7.90;100.00
18900;BME280;9582;52.018;6.306;2023-11-21T05:02:38;101834.81;;;7.91;100.00
18900;BME280;9582;52.018;6.306;2023-11-21T05:05:05;101837.41;;;7.92;100.00
18900;BME280;9582;52.018;6.306;2023-11-21T05:07:33;101839.13;;;7.93;100.00
18900;BME280;9582;52.018;6.306;2023-11-21T05:10:00;101846.91;;;7.95;100.00
18900;BME280;9582;52.018;6.306;2023-11-21T05:12:31;101848.63;;;7.96;100.00
18900;BME280;9582;52.018;6.306;2023-11-21T05:14:59;101856.44;;;7.97;100.00
18900;BME280;9582;52.018;6.306;2023-11-21T05:17:26;101858.16;;;7.98;100.00
18900;BME280;9582;52.018;6.306;2023-11-21T05:19:52;101875.47;;;7.99;100.00
18900;BME280;9582;52.018;6.306;2023-11-21T05:22:19;101872.88;;;8.01;100.00
18900;BME280;9582;52.018;6.306;2023-11-21T05:24:46;101884.16;;;8.01;100.00
18900;BME280;9582;52.018;6.306;2023-11-21T05:27:12;101884.97;;;8.02;100.00
18900;BME280;9582;52.018;6.306;2023-11-21T05:29:39;101884.09;;;8.03;100.00
18900;BME280;9582;52.018;6.306;2023-11-21T05:32:07;101893.66;;;8.04;100.00
18900;BME280;9582;52.018;6.306;2023-11-21T05:34:34;101890.19;;;8.03;100.00
18900;BME280;9582;52.018;6.306;2023-11-21T05:37:00;101904.06;;;8.04;100.00
18900;BME280;9582;52.018;6.306;2023-11-21T05:39:27;101901.44;;;8.05;100.00
18900;BME280;9582;52.018;6.306;2023-11-21T05:41:53;101910.97;;;8.05;100.00
18900;BME280;9582;52.018;6.306;2023-11-21T05:44:20;101915.31;;;8.06;100.00
18900;BME280;9582;52.018;6.306;2023-11-21T05:46:47;101926.59;;;8.06;100.00
18900;BME280;9582;52.018;6.306;2023-11-21T05:49:14;101924.88;;;8.07;100.00
18900;BME280;9582;52.018;6.306;2023-11-21T05:51:41;101921.38;;;8.06;100.00
18900;BME280;9582;52.018;6.306;2023-11-21T05:54:08;101930.03;;;8.08;100.00
18900;BME280;9582;52.018;6.306;2023-11-21T05:56:34;101932.63;;;8.08;100.00
18900;BME280;9582;52.018;6.306;2023-11-21T05:59:01;101941.28;;;8.10;100.00
18900;BME280;9582;52.018;6.306;2023-11-21T06:01:28;101942.13;;;8.11;100.00
18900;BME280;9582;52.018;6.306;2023-11-21T06:03:55;101942.13;;;8.11;100.00
18900;BME280;9582;52.018;6.306;2023-11-21T06:06:22;109693.00;;;8.11;100.00
18900;BME280;9582;52.018;6.306;2023-11-21T06:08:50;105067.09;;;8.12;100.00
18900;BME280;9582;52.018;6.306;2023-11-21T06:11:16;105000.16;;;8.13;100.00
18900;BME280;9582;52.018;6.306;2023-11-21T06:13:43;104976.78;;;8.16;99.56
18900;BME280;9582;52.018;6.306;2023-11-21T06:16:10;104944.63;;;8.16;95.72
18900;BME280;9582;52.018;6.306;2023-11-21T06:18:38;104936.81;;;8.16;92.14
18900;BME280;9582;52.018;6.306;2023-11-21T06:21:05;104922.03;;;8.16;89.98
18900;BME280;9582;52.018;6.306;2023-11-21T06:23:33;104915.16;;;8.18;89.37
18900;BME280;9582;52.018;6.306;2023-11-21T06:26:00;104909.06;;;8.18;88.20
18900;BME280;9582;52.018;6.306;2023-11-21T06:28:26;104909.97;;;8.20;86.72
18900;BME280;9582;52.018;6.306;2023-11-21T06:30:53;104911.75;;;8.21;85.19
18900;BME280;9582;52.018;6.306;2023-11-21T06:33:19;104895.31;;;8.23;84.35
18900;BME280;9582;52.018;6.306;2023-11-21T06:35:47;104895.34;;;8.25;84.67
18900;BME280;9582;52.018;6.306;2023-11-21T06:38:13;104904.06;;;8.25;84.75
18900;BME280;9582;52.018;6.306;2023-11-21T06:40:41;104898.81;;;8.24;85.90
18900;BME280;9582;52.018;6.306;2023-11-21T06:43:07;104902.34;;;8.26;85.17
18900;BME280;9582;52.018;6.306;2023-11-21T06:45:34;104910.16;;;8.26;84.71
18900;BME280;9582;52.018;6.306;2023-11-21T06:48:01;105027.53;;;8.26;84.97
18900;BME280;9582;52.018;6.306;2023-11-21T06:50:27;105039.66;;;8.25;84.52
18900;BME280;9582;52.018;6.306;2023-11-21T06:52:53;105037.03;;;8.24;83.60
18900;BME280;9582;52.018;6.306;2023-11-21T06:55:20;105042.25;;;8.24;83.87
18900;BME280;9582;52.018;6.306;2023-11-21T06:57:48;105047.47;;;8.24;84.46
18900;BME280;9582;52.018;6.306;2023-11-21T07:00:16;105051.81;;;8.25;84.14
18900;BME280;9582;52.018;6.306;2023-11-21T07:02:43;105061.44;;;8.26;84.25
18900;BME280;9582;52.018;6.306;2023-11-21T07:05:09;105070.22;;;8.28;83.81
18900;BME280;9582;52.018;6.306;2023-11-21T07:07:36;105077.22;;;8.29;83.75
18900;BME280;9582;52.018;6.306;2023-11-21T07:10:04;105077.22;;;8.29;83.71
18900;BME280;9582;52.018;6.306;2023-11-21T07:12:31;105072.81;;;8.28;82.86
18900;BME280;9582;52.018;6.306;2023-11-21T07:14:59;105045.84;;;8.27;82.20
18900;BME280;9582;52.018;6.306;2023-11-21T07:17:26;105047.63;;;8.28;80.39
18900;BME280;9582;52.018;6.306;2023-11-21T07:19:53;105059.84;;;8.29;79.87
18900;BME280;9582;52.018;6.306;2023-11-21T07:22:20;105070.31;;;8.31;79.34
18900;BME280;9582;52.018;6.306;2023-11-21T07:24:48;105072.13;;;8.33;79.68
18900;BME280;9582;52.018;6.306;2023-11-21T07:27:15;105084.28;;;8.33;81.01
18900;BME280;9582;52.018;6.306;2023-11-21T07:29:41;105093.88;;;8.34;80.48
18900;BME280;9582;52.018;6.306;2023-11-21T07:32:09;105111.31;;;8.35;81.28
18900;BME280;9582;52.018;6.306;2023-11-21T07:34:36;105107.84;;;8.36;80.60
18900;BME280;9582;52.018;6.306;2023-11-21T07:37:03;105124.50;;;8.39;80.03
18900;BME280;9582;52.018;6.306;2023-11-21T07:39:29;105148.09;;;8.42;80.53
18900;BME280;9582;52.018;6.306;2023-11-21T07:41:56;105133.31;;;8.43;81.58
18900;BME280;9582;52.018;6.306;2023-11-21T07:44:23;105132.53;;;8.45;83.35
18900;BME280;9582;52.018;6.306;2023-11-21T07:46:49;105151.72;;;8.47;83.47
18900;BME280;9582;52.018;6.306;2023-11-21T07:49:17;105163.97;;;8.50;83.88
18900;BME280;9582;52.018;6.306;2023-11-21T07:51:46;105178.81;;;8.51;82.50
18900;BME280;9582;52.018;6.306;2023-11-21T07:54:12;105167.59;;;8.53;81.52
18900;BME280;9582;52.018;6.306;2023-11-21T07:56:39;105160.66;;;8.54;80.82
18900;BME280;9582;52.018;6.306;2023-11-21T07:59:05;105180.69;;;8.55;81.40
18900;BME280;9582;52.018;6.306;2023-11-21T08:01:32;105189.38;;;8.55;90.30
18900;BME280;9582;52.018;6.306;2023-11-21T08:03:58;105195.50;;;8.56;83.95
18900;BME280;9582;52.018;6.306;2023-11-21T08:06:30;105203.41;;;8.57;83.74
18900;BME280;9582;52.018;6.306;2023-11-21T08:08:57;105212.97;;;8.58;83.26
18900;BME280;9582;52.018;6.306;2023-11-21T08:11:23;105227.84;;;8.61;82.46
18900;BME280;9582;52.018;6.306;2023-11-21T08:13:51;105240.03;;;8.60;82.38
18900;BME280;9582;52.018;6.306;2023-11-21T08:16:18;105248.78;;;8.62;81.39
18900;BME280;9582;52.018;6.306;2023-11-21T08:18:45;105271.50;;;8.65;80.55
18900;BME280;9582;52.018;6.306;2023-11-21T08:21:12;105275.94;;;8.67;79.15
18900;BME280;9582;52.018;6.306;2023-11-21T08:23:40;105292.50;;;8.69;79.37
18900;BME280;9582;52.018;6.306;2023-11-21T08:26:06;105293.41;;;8.70;79.22
18900;BME280;9582;52.018;6.306;2023-11-21T08:28:34;105301.31;;;8.72;78.21
18900;BME280;9582;52.018;6.306;2023-11-21T08:31:00;105307.44;;;8.72;78.75
18900;BME280;9582;52.018;6.306;2023-11-21T08:33:27;105325.72;;;8.74;83.49
18900;BME280;9582;52.018;6.306;2023-11-21T08:35:53;105331.88;;;8.76;79.77
18900;BME280;9582;52.018;6.306;2023-11-21T08:38:20;105351.06;;;8.76;81.44
18900;BME280;9582;52.018;6.306;2023-11-21T08:40:48;105352.09;;;8.81;81.60
18900;BME280;9582;52.018;6.306;2023-11-21T08:43:14;105364.34;;;8.84;80.88
18900;BME280;9582;52.018;6.306;2023-11-21T08:45:41;105364.34;;;8.84;82.50
18900;BME280;9582;52.018;6.306;2023-11-21T08:48:08;105355.66;;;8.83;87.79
18900;BME280;9582;52.018;6.306;2023-11-21T08:50:37;105373.09;;;8.84;95.35
18900;BME280;9582;52.018;6.306;2023-11-21T08:53:03;105397.53;;;8.86;100.00
18900;BME280;9582;52.018;6.306;2023-11-21T08:55:31;105401.03;;;8.87;100.00
18900;BME280;9582;52.018;6.306;2023-11-21T08:58:03;105401.09;;;8.88;100.00
18900;BME280;9582;52.018;6.306;2023-11-21T09:00:32;105388.03;;;8.88;100.00
18900;BME280;9582;52.018;6.306;2023-11-21T09:02:58;105388.94;;;8.89;100.00
18900;BME280;9582;52.018;6.306;2023-11-21T09:05:25;105402.97;;;8.92;100.00
18900;BME280;9582;52.018;6.306;2023-11-21T09:07:51;105411.75;;;8.94;100.00
18900;BME280;9582;52.018;6.306;2023-11-21T09:10:18;105410.00;;;8.95;100.00
18900;BME280;9582;52.018;6.306;2023-11-21T09:12:46;105494.56;;;8.98;100.00
18900;BME280;9582;52.018;6.306;2023-11-21T09:15:13;105431.13;;;9.01;100.00
18900;BME280;9582;52.018;6.306;2023-11-21T09:17:40;105420.00;;;9.06;100.00
18900;BME280;9582;52.018;6.306;2023-11-21T09:20:08;105425.44;;;9.12;100.00
18900;BME280;9582;52.018;6.306;2023-11-21T09:22:35;105425.63;;;9.17;100.00
18900;BME280;9582;52.018;6.306;2023-11-21T09:25:00;105421.34;;;9.20;100.00
18900;BME280;9582;52.018;6.306;2023-11-21T09:27:30;105429.38;;;9.25;100.00
18900;BME280;9582;52.018;6.306;2023-11-21T09:29:57;105431.19;;;9.27;100.00
18900;BME280;9582;52.018;6.306;2023-11-21T09:32:25;105433.91;;;9.31;100.00
18900;BME280;9582;52.018;6.306;2023-11-21T09:34:51;105428.72;;;9.32;100.00
18900;BME280;9582;52.018;6.306;2023-11-21T09:37:19;105431.41;;;9.34;100.00
18900;BME280;9582;52.018;6.306;2023-11-21T09:39:45;105426.31;;;9.38;100.00
18900;BME280;9582;52.018;6.306;2023-11-21T09:42:15;105438.78;;;9.45;100.00
18900;BME280;9582;52.018;6.306;2023-11-21T09:44:46;105429.97;;;9.43;100.00
18900;BME280;9582;52.018;6.306;2023-11-21T09:47:15;105423.00;;;9.42;100.00
18900;BME280;9582;52.018;6.306;2023-11-21T09:49:46;105419.41;;;9.40;100.00
18900;BME280;9582;52.018;6.306;2023-11-21T09:52:18;105401.88;;;9.36;100.00
18900;BME280;9582;52.018;6.306;2023-11-21T09:54:49;105396.47;;;9.32;100.00
18900;BME280;9582;52.018;6.306;2023-11-21T09:57:17;105380.69;;;9.28;100.00
18900;BME280;9582;52.018;6.306;2023-11-21T09:59:45;105374.03;;;9.37;100.00
18900;BME280;9582;52.018;6.306;2023-11-21T10:02:14;105365.28;;;9.36;100.00
18900;BME280;9582;52.018;6.306;2023-11-21T10:04:45;105362.91;;;9.44;100.00
18900;BME280;9582;52.018;6.306;2023-11-21T10:07:12;105362.88;;;9.42;100.00
18900;BME280;9582;52.018;6.306;2023-11-21T10:09:41;105354.97;;;9.41;100.00
18900;BME280;9582;52.018;6.306;2023-11-21T10:12:10;105351.47;;;9.40;100.00
18900;BME280;9582;52.018;6.306;2023-11-21T10:14:40;105353.28;;;9.43;100.00
18900;BME280;9582;52.018;6.306;2023-11-21T10:17:08;105344.63;;;9.44;100.00
18900;BME280;9582;52.018;6.306;2023-11-21T10:19:38;105346.50;;;9.48;100.00
18900;BME280;9582;52.018;6.306;2023-11-21T10:22:06;105347.34;;;9.47;100.00
18900;BME280;9582;52.018;6.306;2023-11-21T10:24:34;105339.56;;;9.48;100.00
18900;BME280;9582;52.018;6.306;2023-11-21T10:27:01;105332.50;;;9.46;100.00
18900;BME280;9582;52.018;6.306;2023-11-21T10:29:28;105333.47;;;9.49;100.00
18900;BME280;9582;52.018;6.306;2023-11-21T10:31:55;105329.44;;;9.59;100.00
18900;BME280;9582;52.018;6.306;2023-11-21T10:34:24;105324.31;;;9.62;100.00
18900;BME280;9582;52.018;6.306;2023-11-21T10:36:52;105329.72;;;9.68;100.00
18900;BME280;9582;52.018;6.306;2023-11-21T10:39:24;105338.69;;;9.76;100.00
18900;BME280;9582;52.018;6.306;2023-11-21T10:41:55;105343.06;;;9.77;100.00
18900;BME280;9582;52.018;6.306;2023-11-21T10:44:21;105346.56;;;9.77;100.00
18900;BME280;9582;52.018;6.306;2023-11-21T10:46:50;105344.81;;;9.76;100.00
18900;BME280;9582;52.018;6.306;2023-11-21T10:49:19;105334.41;;;9.79;100.00
18900;BME280;9582;52.018;6.306;2023-11-21T10:51:46;105327.44;;;9.78;100.00
18900;BME280;9582;52.018;6.306;2023-11-21T10:54:17;105316.09;;;9.78;100.00
18900;BME280;9582;52.018;6.306;2023-11-21T10:56:45;105309.84;;;9.73;100.00
18900;BME280;9582;52.018;6.306;2023-11-21T10:59:13;105317.81;;;9.77;100.00
18900;BME280;9582;52.018;6.306;2023-11-21T11:01:41;105319.53;;;9.77;100.00
18900;BME280;9582;52.018;6.306;2023-11-21T11:04:09;105324.63;;;9.72;100.00
18900;BME280;9582;52.018;6.306;2023-11-21T11:06:42;105327.16;;;9.69;100.00
18900;BME280;9582;52.018;6.306;2023-11-21T11:09:10;105326.31;;;9.70;100.00
18900;BME280;9582;52.018;6.306;2023-11-21T11:11:39;105332.41;;;9.71;100.00
18900;BME280;9582;52.018;6.306;2023-11-21T11:14:10;105329.72;;;9.68;100.00
18900;BME280;9582;52.018;6.306;2023-11-21T11:16:38;105325.34;;;9.67;100.00
18900;BME280;9582;52.018;6.306;2023-11-21T11:19:06;105337.63;;;9.71;100.00
18900;BME280;9582;52.018;6.306;2023-11-21T11:21:43;105343.66;;;9.68;100.00
18900;BME280;9582;52.018;6.306;2023-11-21T11:24:32;105348.88;;;9.67;100.00
18900;BME280;9582;52.018;6.306;2023-11-21T11:27:07;105346.25;;;9.67;100.00
18900;BME280;9582;52.018;6.306;2023-11-21T11:29:44;105347.16;;;9.69;100.00
18900;BME280;9582;52.018;6.306;2023-11-21T11:32:21;105347.13;;;9.67;100.00
18900;BME280;9582;52.018;6.306;2023-11-21T11:34:57;105342.72;;;9.65;100.00
18900;BME280;9582;52.018;6.306;2023-11-21T11:37:27;105339.13;;;9.63;100.00
18900;BME280;9582;52.018;6.306;2023-11-21T11:39:54;105334.78;;;9.62;100.00
18900;BME280;9582;52.018;6.306;2023-11-21T11:42:22;105331.19;;;9.60;100.00
18900;BME280;9582;52.018;6.306;2023-11-21T11:44:53;105335.50;;;9.58;100.00
18900;BME280;9582;52.018;6.306;2023-11-21T11:47:24;105325.81;;;9.54;100.00
18900;BME280;9582;52.018;6.306;2023-11-21T11:50:03;105317.00;;;9.52;100.00
18900;BME280;9582;52.018;6.306;2023-11-21T11:52:38;105318.78;;;9.53;100.00
18900;BME280;9582;52.018;6.306;2023-11-21T11:55:07;105319.59;;;9.50;100.00
18900;BME280;9582;52.018;6.306;2023-11-21T11:57:35;105320.47;;;9.51;100.00
18900;BME280;9582;52.018;6.306;2023-11-21T12:00:15;105316.91;;;9.49;100.00
18900;BME280;9582;52.018;6.306;2023-11-21T12:02:45;105311.69;;;9.49;100.00
18900;BME280;9582;52.018;6.306;2023-11-21T12:05:13;105307.41;;;9.51;100.00
18900;BME280;9582;52.018;6.306;2023-11-21T12:07:48;105299.59;;;9.52;100.00
18900;BME280;9582;52.018;6.306;2023-11-21T12:10:17;105296.25;;;9.56;100.00
18900;BME280;9582;52.018;6.306;2023-11-21T12:12:45;105288.53;;;9.59;100.00
18900;BME280;9582;52.018;6.306;2023-11-21T12:15:14;105279.00;;;9.63;100.00
18900;BME280;9582;52.018;6.306;2023-11-21T12:17:42;105275.53;;;9.62;100.00
18900;BME280;9582;52.018;6.306;2023-11-21T12:20:10;105275.59;;;9.65;100.00
18900;BME280;9582;52.018;6.306;2023-11-21T12:22:44;105261.50;;;9.60;100.00
18900;BME280;9582;52.018;6.306;2023-11-21T12:25:13;105252.69;;;9.57;100.00
18900;BME280;9582;52.018;6.306;2023-11-21T12:27:42;105244.72;;;9.52;100.00
18900;BME280;9582;52.018;6.306;2023-11-21T12:30:11;105245.50;;;9.48;100.00
18900;BME280;9582;52.018;6.306;2023-11-21T12:32:42;105228.91;;;9.48;100.00
18900;BME280;9582;52.018;6.306;2023-11-21T12:35:11;105235.16;;;9.53;100.00
18900;BME280;9582;52.018;6.306;2023-11-21T12:37:39;105233.38;;;9.52;100.00
18900;BME280;9582;52.018;6.306;2023-11-21T12:40:09;105232.44;;;9.50;100.00
18900;BME280;9582;52.018;6.306;2023-11-21T12:42:37;105227.19;;;9.48;100.00
18900;BME280;9582;52.018;6.306;2023-11-21T12:45:09;105219.28;;;9.47;100.00
18900;BME280;9582;52.018;6.306;2023-11-21T12:47:43;105213.25;;;9.48;100.00
18900;BME280;9582;52.018;6.306;2023-11-21T12:50:10;105212.38;;;9.49;100.00
18900;BME280;9582;52.018;6.306;2023-11-21T12:52:41;105201.13;;;9.51;100.00
18900;BME280;9582;52.018;6.306;2023-11-21T12:55:09;105195.91;;;9.51;100.00
18900;BME280;9582;52.018;6.306;2023-11-21T12:57:41;105190.72;;;9.53;100.00
18900;BME280;9582;52.018;6.306;2023-11-21T13:00:10;105180.28;;;9.53;100.00
18900;BME280;9582;52.018;6.306;2023-11-21T13:02:42;105163.72;;;9.52;100.00
18900;BME280;9582;52.018;6.306;2023-11-21T13:05:09;105161.09;;;9.52;100.00